Time,TemperatureF,DewpointF,PressureIn,WindDirection,WindDirectionDegrees,WindSpeedMPH,WindSpeedGustMPH,Humidity,HourlyPrecipIn,Conditions,Clouds,dailyrainin,SoftwareType,DateUTC
2013-07-12 01:22:00,59.0,51.0,30.06,ESE,113,0.0,0.0,76,0.00,,,0.00,,2013-07-12 05:22:00,
2013-07-12 01:32:00,59.0,52.0,30.07,ESE,113,0.0,0.0,77,0.00,,,0.00,,2013-07-12 05:32:00,
2013-07-12 01:43:00,58.0,51.0,30.07,ESE,113,0.0,0.0,77,0.00,,,0.00,,2013-07-12 05:43:00,
2013-07-12 01:53:00,58.0,51.0,30.06,ESE,113,0.0,0.0,78,0.00,,,0.00,,2013-07-12 05:53:00,
2013-07-12 02:01:00,57.0,50.0,30.06,ESE,113,0.0,0.0,78,0.00,,,0.00,,2013-07-12 06:01:00,
2013-07-12 02:11:00,57.0,51.0,30.06,ESE,113,0.0,0.0,79,0.00,,,0.00,,2013-07-12 06:11:00,
2013-07-12 02:22:00,57.0,51.0,30.06,ESE,113,0.0,0.0,79,0.00,,,0.00,,2013-07-12 06:22:00,
2013-07-12 02:33:00,56.0,50.0,30.06,ESE,113,0.0,0.0,80,0.00,,,0.00,,2013-07-12 06:33:00,
2013-07-12 02:52:00,55.0,49.0,30.06,ESE,113,0.0,0.0,81,0.00,,,0.00,,2013-07-12 06:52:00,
2013-07-12 03:02:00,55.0,49.0,30.07,ESE,113,0.0,0.0,81,0.00,,,0.00,,2013-07-12 07:02:00,
2013-07-12 03:12:00,55.0,49.0,30.07,ESE,113,0.0,0.0,81,0.00,,,0.00,,2013-07-12 07:12:00,
2013-07-12 03:22:00,54.0,49.0,30.08,ESE,113,0.0,0.0,82,0.00,,,0.00,,2013-07-12 07:22:00,
2013-07-12 03:32:00,54.0,49.0,30.07,ESE,113,0.0,0.0,83,0.00,,,0.00,,2013-07-12 07:32:00,
2013-07-12 03:43:00,54.0,49.0,30.07,ESE,113,0.0,0.0,83,0.00,,,0.00,,2013-07-12 07:43:00,
2013-07-12 03:52:00,54.0,49.0,30.08,ESE,113,0.0,0.0,83,0.00,,,0.00,,2013-07-12 07:52:00,
2013-07-12 04:01:00,53.0,48.0,30.09,ESE,113,0.0,0.0,83,0.00,,,0.00,,2013-07-12 08:01:00,
2013-07-12 04:21:00,53.0,48.0,30.09,ESE,113,0.0,0.0,84,0.00,,,0.00,,2013-07-12 08:21:00,
2013-07-12 04:32:00,53.0,48.0,30.10,ESE,113,0.0,0.0,83,0.00,,,0.00,,2013-07-12 08:32:00,
2013-07-12 04:42:00,53.0,48.0,30.10,ESE,113,0.0,0.0,84,0.00,,,0.00,,2013-07-12 08:42:00,
2013-07-12 04:53:00,53.0,48.0,30.10,ESE,113,0.0,0.0,84,0.00,,,0.00,,2013-07-12 08:53:00,
2013-07-12 05:02:00,53.0,48.0,30.10,ESE,113,0.0,0.0,84,0.00,,,0.00,,2013-07-12 09:02:00,
2013-07-12 05:12:00,52.0,47.0,30.10,ESE,113,0.0,0.0,84,0.00,,,0.00,,2013-07-12 09:12:00,
2013-07-12 05:22:00,52.0,48.0,30.10,NNW,338,0.0,0.0,85,0.00,,,0.00,,2013-07-12 09:22:00,
2013-07-12 05:32:00,52.0,48.0,30.10,NNW,338,0.0,0.0,85,0.00,,,0.00,,2013-07-12 09:32:00,
2013-07-12 05:52:00,52.0,48.0,30.12,NNW,338,0.0,0.0,85,0.00,,,0.00,,2013-07-12 09:52:00,
2013-07-12 06:11:00,52.0,48.0,30.12,NNW,338,0.0,0.0,85,0.00,,,0.00,,2013-07-12 10:11:00,
2013-07-12 06:33:00,52.0,48.0,30.12,NNW,338,0.0,0.0,86,0.00,,,0.00,,2013-07-12 10:33:00,
2013-07-12 07:02:00,52.0,48.0,30.12,NNW,338,0.0,0.0,86,0.00,,,0.00,,2013-07-12 11:02:00,
2013-07-12 07:22:00,52.0,48.0,30.13,NNW,338,0.0,0.0,86,0.00,,,0.00,,2013-07-12 11:22:00,
2013-07-12 07:32:00,52.0,48.0,30.13,NNW,338,0.0,0.0,86,0.00,,,0.00,,2013-07-12 11:32:00,
2013-07-12 07:43:00,53.0,49.0,30.13,NNW,338,0.0,0.0,86,0.00,,,0.00,,2013-07-12 11:43:00,
2013-07-12 07:52:00,53.0,49.0,30.13,NNW,338,0.0,0.0,87,0.00,,,0.00,,2013-07-12 11:52:00,
2013-07-12 08:02:00,54.0,50.0,30.13,NNW,338,0.0,0.0,87,0.00,,,0.00,,2013-07-12 12:02:00,
2013-07-12 08:11:00,55.0,51.0,30.13,NNW,338,0.0,0.0,87,0.00,,,0.00,,2013-07-12 12:11:00,
2013-07-12 08:32:00,61.0,58.0,30.14,North,0,0.0,0.0,89,0.00,,,0.00,,2013-07-12 12:32:00,
2013-07-12 08:43:00,63.0,59.0,30.14,NNE,23,0.0,0.0,87,0.00,,,0.00,,2013-07-12 12:43:00,
2013-07-12 08:52:00,65.0,60.0,30.14,NNE,23,0.0,0.0,84,0.00,,,0.00,,2013-07-12 12:52:00,
2013-07-12 10:32:00,72.0,60.0,30.15,North,0,0.0,0.0,67,0.00,,,0.00,,2013-07-12 14:32:00,
2013-07-12 10:44:00,72.0,60.0,30.15,NNW,338,0.0,0.0,67,0.00,,,0.00,,2013-07-12 14:44:00,
2013-07-12 10:53:00,73.0,61.0,30.14,ESE,113,0.0,0.0,65,0.00,,,0.00,,2013-07-12 14:53:00,
2013-07-12 11:02:00,72.0,59.0,30.13,South,180,2.0,3.0,64,0.00,,,0.00,,2013-07-12 15:02:00,
2013-07-12 12:32:00,76.0,60.0,30.13,ESE,113,0.0,0.0,58,0.00,,,0.00,,2013-07-12 16:32:00,
2013-07-12 12:57:00,78.0,62.0,30.12,NW,315,0.0,0.0,57,0.00,,,0.00,,2013-07-12 16:57:00,
2013-07-12 13:06:00,78.0,62.0,30.12,NW,315,0.0,0.0,57,0.00,,,0.00,,2013-07-12 17:06:00,
2013-07-12 13:24:00,79.0,61.0,30.12,NNE,23,0.0,0.0,55,0.00,,,0.00,,2013-07-12 17:24:00,
2013-07-12 13:37:00,80.0,63.0,30.11,NNE,23,0.0,0.0,56,0.00,,,0.00,,2013-07-12 17:37:00,
2013-07-12 14:27:00,81.0,61.0,30.11,NE,45,0.0,0.0,50,0.00,,,0.00,,2013-07-12 18:27:00,
2013-07-12 14:48:00,82.0,63.0,30.11,WSW,248,0.0,0.0,53,0.00,,,0.00,,2013-07-12 18:48:00,
2013-07-12 14:56:00,82.0,63.0,30.11,SSE,158,3.0,3.0,52,0.00,,,0.00,,2013-07-12 18:56:00,
2013-07-12 15:46:00,83.0,61.0,30.10,West,270,0.0,0.0,48,0.00,,,0.00,,2013-07-12 19:46:00,
2013-07-12 15:56:00,83.0,62.0,30.10,NE,45,0.0,0.0,50,0.00,,,0.00,,2013-07-12 19:56:00,
2013-07-12 16:03:00,83.0,62.0,30.10,NNE,23,0.0,0.0,49,0.00,,,0.00,,2013-07-12 20:03:00,
2013-07-12 16:34:00,79.0,61.0,30.11,NNE,23,0.0,0.0,55,0.00,,,0.00,,2013-07-12 20:34:00,
2013-07-12 17:03:00,82.0,64.0,30.10,NW,315,0.0,0.0,55,0.00,,,0.00,,2013-07-12 21:03:00,
2013-07-12 17:25:00,83.0,65.0,30.10,North,0,0.0,0.0,54,0.00,,,0.00,,2013-07-12 21:25:00,
2013-07-12 17:46:00,83.0,63.0,30.10,ENE,68,0.0,0.0,51,0.00,,,0.00,,2013-07-12 21:46:00,
2013-07-12 17:55:00,82.0,63.0,30.09,North,0,0.0,0.0,53,0.00,,,0.00,,2013-07-12 21:55:00,
2013-07-12 18:04:00,82.0,63.0,30.10,NE,45,0.0,0.0,53,0.00,,,0.00,,2013-07-12 22:04:00,
2013-07-12 18:17:00,82.0,63.0,30.10,NE,45,0.0,0.0,53,0.00,,,0.00,,2013-07-12 22:17:00,
2013-07-12 18:33:00,83.0,65.0,30.10,North,0,0.0,0.0,54,0.00,,,0.00,,2013-07-12 22:33:00,
2013-07-12 18:45:00,83.0,64.0,30.09,NNW,338,0.0,3.0,53,0.00,,,0.00,,2013-07-12 22:45:00,
2013-07-12 18:56:00,83.0,64.0,30.09,NNE,23,0.0,0.0,53,0.00,,,0.00,,2013-07-12 22:56:00,
2013-07-12 19:04:00,82.0,63.0,30.09,NE,45,0.0,0.0,53,0.00,,,0.00,,2013-07-12 23:04:00,
2013-07-12 19:44:00,79.0,63.0,30.09,East,90,0.0,0.0,58,0.00,,,0.00,,2013-07-12 23:44:00,
2013-07-12 19:58:00,78.0,62.0,30.09,ESE,113,0.0,0.0,59,0.00,,,0.00,,2013-07-12 23:58:00,
2013-07-12 20:06:00,77.0,63.0,30.09,East,90,0.0,0.0,61,0.00,,,0.00,,2013-07-13 00:06:00,
2013-07-12 20:33:00,76.0,62.0,30.09,East,90,0.0,0.0,62,0.00,,,0.00,,2013-07-13 00:33:00,
2013-07-12 20:46:00,76.0,62.0,30.09,East,90,0.0,0.0,62,0.00,,,0.00,,2013-07-13 00:46:00,
2013-07-12 21:13:00,75.0,62.0,30.09,East,90,0.0,0.0,65,0.00,,,0.00,,2013-07-13 01:13:00,
2013-07-12 21:24:00,75.0,62.0,30.09,East,90,0.0,0.0,65,0.00,,,0.00,,2013-07-13 01:24:00,
2013-07-12 21:47:00,74.0,62.0,30.10,NE,45,0.0,0.0,66,0.00,,,0.00,,2013-07-13 01:47:00,
2013-07-12 22:06:00,71.0,60.0,30.10,NE,45,0.0,0.0,68,0.00,,,0.00,,2013-07-13 02:06:00,
2013-07-12 22:25:00,70.0,60.0,30.11,NE,45,0.0,0.0,71,0.00,,,0.00,,2013-07-13 02:25:00,
2013-07-12 23:13:00,68.0,60.0,30.11,NE,45,0.0,0.0,76,0.00,,,0.00,,2013-07-13 03:13:00,
2013-07-12 23:27:00,68.0,60.0,30.11,NE,45,0.0,0.0,76,0.00,,,0.00,,2013-07-13 03:27:00,